sensor_id;sensor_type;location;lat;lon;timestamp;temperature;humidity
33594;DHT22;19920;52.242;20.940;2022-11-14T00:01:57;9.70;99.90
33594;DHT22;19920;52.242;20.940;2022-11-14T00:04:23;9.70;99.90
33594;DHT22;19920;52.242;20.940;2022-11-14T00:06:49;9.70;99.90
33594;DHT22;19920;52.242;20.940;2022-11-14T00:09:14;9.70;99.90
33594;DHT22;19920;52.242;20.940;2022-11-14T00:11:40;9.80;99.90
33594;DHT22;19920;52.242;20.940;2022-11-14T00:14:05;9.70;99.90
33594;DHT22;19920;52.242;20.940;2022-11-14T00:16:31;9.70;99.90
33594;DHT22;19920;52.242;20.940;2022-11-14T00:18:57;9.70;99.90
33594;DHT22;19920;52.242;20.940;2022-11-14T00:21:22;9.70;99.90
33594;DHT22;19920;52.242;20.940;2022-11-14T00:23:48;9.70;99.90
33594;DHT22;19920;52.242;20.940;2022-11-14T00:26:14;9.70;99.90
33594;DHT22;19920;52.242;20.940;2022-11-14T00:28:39;9.70;99.90
33594;DHT22;19920;52.242;20.940;2022-11-14T00:31:05;9.60;99.90
33594;DHT22;19920;52.242;20.940;2022-11-14T00:33:30;9.70;99.90
33594;DHT22;19920;52.242;20.940;2022-11-14T00:35:56;9.60;99.90
33594;DHT22;19920;52.242;20.940;2022-11-14T00:38:22;9.60;99.90
33594;DHT22;19920;52.242;20.940;2022-11-14T00:40:48;9.70;99.90
33594;DHT22;19920;52.242;20.940;2022-11-14T00:43:13;9.60;99.90
33594;DHT22;19920;52.242;20.940;2022-11-14T00:45:41;9.60;99.90
33594;DHT22;19920;52.242;20.940;2022-11-14T00:48:06;9.60;99.90
33594;DHT22;19920;52.242;20.940;2022-11-14T00:50:32;9.70;99.90
33594;DHT22;19920;52.242;20.940;2022-11-14T00:52:58;9.70;99.90
33594;DHT22;19920;52.242;20.940;2022-11-14T00:55:23;9.60;99.90
33594;DHT22;19920;52.242;20.940;2022-11-14T00:57:49;9.60;99.90
33594;DHT22;19920;52.242;20.940;2022-11-14T01:00:15;9.60;99.90
33594;DHT22;19920;52.242;20.940;2022-11-14T01:02:40;9.70;99.90
33594;DHT22;19920;52.242;20.940;2022-11-14T01:05:06;9.60;99.90
33594;DHT22;19920;52.242;20.940;2022-11-14T01:07:31;9.50;99.90
33594;DHT22;19920;52.242;20.940;2022-11-14T01:09:57;9.50;99.90
33594;DHT22;19920;52.242;20.940;2022-11-14T01:12:23;9.50;99.90
33594;DHT22;19920;52.242;20.940;2022-11-14T01:14:48;9.50;99.90
33594;DHT22;19920;52.242;20.940;2022-11-14T01:17:14;9.50;99.90
33594;DHT22;19920;52.242;20.940;2022-11-14T01:19:40;9.60;99.90
33594;DHT22;19920;52.242;20.940;2022-11-14T01:22:05;9.50;99.90
33594;DHT22;19920;52.242;20.940;2022-11-14T01:24:32;9.50;99.90
33594;DHT22;19920;52.242;20.940;2022-11-14T01:26:58;9.50;99.90
33594;DHT22;19920;52.242;20.940;2022-11-14T01:29:23;9.60;99.90
33594;DHT22;19920;52.242;20.940;2022-11-14T01:31:49;9.60;99.90
33594;DHT22;19920;52.242;20.940;2022-11-14T01:34:15;9.60;99.90
33594;DHT22;19920;52.242;20.940;2022-11-14T01:36:41;9.60;99.90
33594;DHT22;19920;52.242;20.940;2022-11-14T01:39:06;9.50;99.90
33594;DHT22;19920;52.242;20.940;2022-11-14T01:41:32;9.50;99.90
33594;DHT22;19920;52.242;20.940;2022-11-14T01:43:58;9.50;99.90
33594;DHT22;19920;52.242;20.940;2022-11-14T01:46:28;9.60;99.90
33594;DHT22;19920;52.242;20.940;2022-11-14T01:49:07;9.50;99.90
33594;DHT22;19920;52.242;20.940;2022-11-14T01:51:44;9.40;99.90
33594;DHT22;19920;52.242;20.940;2022-11-14T01:54:24;9.40;99.90
33594;DHT22;19920;52.242;20.940;2022-11-14T01:56:55;9.40;99.90
33594;DHT22;19920;52.242;20.940;2022-11-14T01:59:26;9.40;99.90
33594;DHT22;19920;52.242;20.940;2022-11-14T02:01:54;9.40;99.90
33594;DHT22;19920;52.242;20.940;2022-11-14T02:04:24;9.40;99.90
33594;DHT22;19920;52.242;20.940;2022-11-14T02:06:56;9.40;99.90
33594;DHT22;19920;52.242;20.940;2022-11-14T02:09:24;9.40;99.90
33594;DHT22;19920;52.242;20.940;2022-11-14T02:11:52;9.40;99.90
33594;DHT22;19920;52.242;20.940;2022-11-14T02:14:19;9.30;99.90
33594;DHT22;19920;52.242;20.940;2022-11-14T02:16:45;9.40;99.90
33594;DHT22;19920;52.242;20.940;2022-11-14T02:19:13;9.30;99.90
33594;DHT22;19920;52.242;20.940;2022-11-14T02:21:39;9.30;99.90
33594;DHT22;19920;52.242;20.940;2022-11-14T02:24:08;9.30;99.90
33594;DHT22;19920;52.242;20.940;2022-11-14T02:26:34;9.40;99.90
33594;DHT22;19920;52.242;20.940;2022-11-14T02:29:00;9.40;99.90
33594;DHT22;19920;52.242;20.940;2022-11-14T02:31:26;9.40;99.90
33594;DHT22;19920;52.242;20.940;2022-11-14T02:33:51;9.40;99.90
33594;DHT22;19920;52.242;20.940;2022-11-14T02:36:17;9.30;99.90
33594;DHT22;19920;52.242;20.940;2022-11-14T02:38:43;9.30;99.90
33594;DHT22;19920;52.242;20.940;2022-11-14T02:41:08;9.30;99.90
33594;DHT22;19920;52.242;20.940;2022-11-14T02:43:34;9.30;99.90
33594;DHT22;19920;52.242;20.940;2022-11-14T02:45:59;9.30;99.90
33594;DHT22;19920;52.242;20.940;2022-11-14T02:48:25;9.20;99.90
33594;DHT22;19920;52.242;20.940;2022-11-14T02:50:51;9.10;99.90
33594;DHT22;19920;52.242;20.940;2022-11-14T02:53:16;9.10;99.90
33594;DHT22;19920;52.242;20.940;2022-11-14T02:55:42;9.20;99.90
33594;DHT22;19920;52.242;20.940;2022-11-14T02:58:08;9.20;99.90
33594;DHT22;19920;52.242;20.940;2022-11-14T03:00:34;9.30;99.90
33594;DHT22;19920;52.242;20.940;2022-11-14T03:02:59;9.30;99.90
33594;DHT22;19920;52.242;20.940;2022-11-14T03:05:25;9.20;99.90
33594;DHT22;19920;52.242;20.940;2022-11-14T03:07:54;9.20;99.90
33594;DHT22;19920;52.242;20.940;2022-11-14T03:10:21;9.20;99.90
33594;DHT22;19920;52.242;20.940;2022-11-14T03:12:47;9.20;99.90
33594;DHT22;19920;52.242;20.940;2022-11-14T03:15:12;9.20;99.90
33594;DHT22;19920;52.242;20.940;2022-11-14T03:17:38;9.20;99.90
33594;DHT22;19920;52.242;20.940;2022-11-14T03:20:05;9.20;99.90
33594;DHT22;19920;52.242;20.940;2022-11-14T03:22:31;9.10;99.90
33594;DHT22;19920;52.242;20.940;2022-11-14T03:24:57;9.10;99.90
33594;DHT22;19920;52.242;20.940;2022-11-14T03:27:22;9.10;99.90
33594;DHT22;19920;52.242;20.940;2022-11-14T03:29:48;9.20;99.90
33594;DHT22;19920;52.242;20.940;2022-11-14T03:32:14;9.20;99.90
33594;DHT22;19920;52.242;20.940;2022-11-14T03:34:40;9.20;99.90
33594;DHT22;19920;52.242;20.940;2022-11-14T03:37:06;9.20;99.90
33594;DHT22;19920;52.242;20.940;2022-11-14T03:39:32;9.20;99.90
33594;DHT22;19920;52.242;20.940;2022-11-14T03:41:57;9.20;99.90
33594;DHT22;19920;52.242;20.940;2022-11-14T03:44:23;9.20;99.90
33594;DHT22;19920;52.242;20.940;2022-11-14T03:46:50;9.10;99.90
33594;DHT22;19920;52.242;20.940;2022-11-14T03:49:16;9.20;99.90
33594;DHT22;19920;52.242;20.940;2022-11-14T03:51:42;9.20;99.90
33594;DHT22;19920;52.242;20.940;2022-11-14T03:54:08;9.10;99.90
33594;DHT22;19920;52.242;20.940;2022-11-14T03:56:33;9.10;99.90
33594;DHT22;19920;52.242;20.940;2022-11-14T03:58:59;9.10;99.90
33594;DHT22;19920;52.242;20.940;2022-11-14T04:01:25;9.10;99.90
33594;DHT22;19920;52.242;20.940;2022-11-14T04:03:52;9.30;99.90
33594;DHT22;19920;52.242;20.940;2022-11-14T04:06:17;9.20;99.90
33594;DHT22;19920;52.242;20.940;2022-11-14T04:08:43;9.10;99.90
33594;DHT22;19920;52.242;20.940;2022-11-14T04:11:09;9.20;99.90
33594;DHT22;19920;52.242;20.940;2022-11-14T04:13:34;9.20;99.90
33594;DHT22;19920;52.242;20.940;2022-11-14T04:16:00;9.20;99.90
33594;DHT22;19920;52.242;20.940;2022-11-14T04:18:26;9.10;99.90
33594;DHT22;19920;52.242;20.940;2022-11-14T04:20:52;9.10;99.90
33594;DHT22;19920;52.242;20.940;2022-11-14T04:23:18;9.00;99.90
33594;DHT22;19920;52.242;20.940;2022-11-14T04:25:45;9.10;99.90
33594;DHT22;19920;52.242;20.940;2022-11-14T04:28:11;9.10;99.90
33594;DHT22;19920;52.242;20.940;2022-11-14T04:30:38;9.20;99.90
33594;DHT22;19920;52.242;20.940;2022-11-14T04:33:03;9.10;99.90
33594;DHT22;19920;52.242;20.940;2022-11-14T04:35:29;9.10;99.90
33594;DHT22;19920;52.242;20.940;2022-11-14T04:37:55;9.10;99.90
33594;DHT22;19920;52.242;20.940;2022-11-14T04:40:20;9.10;99.90
33594;DHT22;19920;52.242;20.940;2022-11-14T04:42:47;9.10;99.90
33594;DHT22;19920;52.242;20.940;2022-11-14T04:45:13;9.10;99.90
33594;DHT22;19920;52.242;20.940;2022-11-14T04:47:41;9.20;99.90
33594;DHT22;19920;52.242;20.940;2022-11-14T04:50:07;9.20;99.90
33594;DHT22;19920;52.242;20.940;2022-11-14T04:52:33;9.20;99.90
33594;DHT22;19920;52.242;20.940;2022-11-14T04:54:58;9.20;99.90
33594;DHT22;19920;52.242;20.940;2022-11-14T04:57:24;9.20;99.90
33594;DHT22;19920;52.242;20.940;2022-11-14T04:59:50;9.10;99.90
33594;DHT22;19920;52.242;20.940;2022-11-14T05:02:16;9.10;99.90
33594;DHT22;19920;52.242;20.940;2022-11-14T05:04:41;9.10;99.90
33594;DHT22;19920;52.242;20.940;2022-11-14T05:07:09;9.10;99.90
33594;DHT22;19920;52.242;20.940;2022-11-14T05:09:34;9.10;99.90
33594;DHT22;19920;52.242;20.940;2022-11-14T05:12:01;9.10;99.90
33594;DHT22;19920;52.242;20.940;2022-11-14T05:14:27;9.10;99.90
33594;DHT22;19920;52.242;20.940;2022-11-14T05:16:53;9.20;99.90
33594;DHT22;19920;52.242;20.940;2022-11-14T05:19:18;9.10;99.90
33594;DHT22;19920;52.242;20.940;2022-11-14T05:21:44;9.10;99.90
33594;DHT22;19920;52.242;20.940;2022-11-14T05:24:10;9.10;99.90
33594;DHT22;19920;52.242;20.940;2022-11-14T05:26:35;9.10;99.90
33594;DHT22;19920;52.242;20.940;2022-11-14T05:29:01;9.10;99.90
33594;DHT22;19920;52.242;20.940;2022-11-14T05:31:27;9.10;99.90
33594;DHT22;19920;52.242;20.940;2022-11-14T05:33:52;9.10;99.90
33594;DHT22;19920;52.242;20.940;2022-11-14T05:36:18;9.10;99.90
33594;DHT22;19920;52.242;20.940;2022-11-14T05:38:44;9.20;99.90
33594;DHT22;19920;52.242;20.940;2022-11-14T05:41:15;9.10;99.90
33594;DHT22;19920;52.242;20.940;2022-11-14T05:43:42;9.10;99.90
33594;DHT22;19920;52.242;20.940;2022-11-14T05:46:12;9.00;99.90
33594;DHT22;19920;52.242;20.940;2022-11-14T05:48:39;9.00;99.90
33594;DHT22;19920;52.242;20.940;2022-11-14T05:51:06;9.00;99.90
33594;DHT22;19920;52.242;20.940;2022-11-14T05:53:32;9.00;99.90
33594;DHT22;19920;52.242;20.940;2022-11-14T05:56:06;9.00;99.90
33594;DHT22;19920;52.242;20.940;2022-11-14T05:58:33;9.00;99.90
33594;DHT22;19920;52.242;20.940;2022-11-14T06:01:10;9.00;99.90
33594;DHT22;19920;52.242;20.940;2022-11-14T06:03:39;9.10;99.90
33594;DHT22;19920;52.242;20.940;2022-11-14T06:06:07;9.00;99.90
33594;DHT22;19920;52.242;20.940;2022-11-14T06:08:33;9.10;99.90
33594;DHT22;19920;52.242;20.940;2022-11-14T06:11:03;9.10;99.90
33594;DHT22;19920;52.242;20.940;2022-11-14T06:13:30;9.20;99.90
33594;DHT22;19920;52.242;20.940;2022-11-14T06:16:00;9.30;99.90
33594;DHT22;19920;52.242;20.940;2022-11-14T06:18:28;9.20;99.90
33594;DHT22;19920;52.242;20.940;2022-11-14T06:20:57;9.10;99.90
33594;DHT22;19920;52.242;20.940;2022-11-14T06:23:23;9.10;99.90
33594;DHT22;19920;52.242;20.940;2022-11-14T06:25:48;9.00;99.90
33594;DHT22;19920;52.242;20.940;2022-11-14T06:28:14;9.00;99.90
33594;DHT22;19920;52.242;20.940;2022-11-14T06:30:40;9.00;99.90
33594;DHT22;19920;52.242;20.940;2022-11-14T06:33:05;9.00;99.90
33594;DHT22;19920;52.242;20.940;2022-11-14T06:35:31;9.10;99.90
33594;DHT22;19920;52.242;20.940;2022-11-14T06:37:59;9.20;99.90
33594;DHT22;19920;52.242;20.940;2022-11-14T06:40:24;9.20;99.90
33594;DHT22;19920;52.242;20.940;2022-11-14T06:42:50;9.20;99.90
33594;DHT22;19920;52.242;20.940;2022-11-14T06:45:17;9.30;99.90
33594;DHT22;19920;52.242;20.940;2022-11-14T06:47:43;9.30;99.90
33594;DHT22;19920;52.242;20.940;2022-11-14T06:50:08;9.40;99.90
33594;DHT22;19920;52.242;20.940;2022-11-14T06:52:34;9.30;99.90
33594;DHT22;19920;52.242;20.940;2022-11-14T06:55:00;9.30;99.90
33594;DHT22;19920;52.242;20.940;2022-11-14T06:57:25;9.40;99.90
33594;DHT22;19920;52.242;20.940;2022-11-14T06:59:51;9.20;99.90
33594;DHT22;19920;52.242;20.940;2022-11-14T07:02:17;9.20;99.90
33594;DHT22;19920;52.242;20.940;2022-11-14T07:04:42;9.20;99.90
33594;DHT22;19920;52.242;20.940;2022-11-14T07:07:08;9.30;99.90
33594;DHT22;19920;52.242;20.940;2022-11-14T07:09:33;9.30;99.90
33594;DHT22;19920;52.242;20.940;2022-11-14T07:11:59;9.30;99.90
33594;DHT22;19920;52.242;20.940;2022-11-14T07:14:25;9.30;99.90
33594;DHT22;19920;52.242;20.940;2022-11-14T07:16:50;9.30;99.90
33594;DHT22;19920;52.242;20.940;2022-11-14T07:19:16;9.20;99.90
33594;DHT22;19920;52.242;20.940;2022-11-14T07:21:42;9.10;99.90
33594;DHT22;19920;52.242;20.940;2022-11-14T07:24:07;9.10;99.90
33594;DHT22;19920;52.242;20.940;2022-11-14T07:26:33;9.00;99.90
33594;DHT22;19920;52.242;20.940;2022-11-14T07:28:59;9.00;99.90
33594;DHT22;19920;52.242;20.940;2022-11-14T07:31:25;9.00;99.90
33594;DHT22;19920;52.242;20.940;2022-11-14T07:33:50;9.00;99.90
33594;DHT22;19920;52.242;20.940;2022-11-14T07:36:16;9.00;99.90
33594;DHT22;19920;52.242;20.940;2022-11-14T07:38:42;9.00;99.90
33594;DHT22;19920;52.242;20.940;2022-11-14T07:41:13;9.10;99.90
33594;DHT22;19920;52.242;20.940;2022-11-14T07:43:39;9.10;99.90
33594;DHT22;19920;52.242;20.940;2022-11-14T07:46:16;9.10;99.90
33594;DHT22;19920;52.242;20.940;2022-11-14T07:48:42;9.00;99.90
33594;DHT22;19920;52.242;20.940;2022-11-14T07:51:13;9.00;99.90
33594;DHT22;19920;52.242;20.940;2022-11-14T07:53:40;9.10;99.90
33594;DHT22;19920;52.242;20.940;2022-11-14T07:56:07;9.10;99.90
33594;DHT22;19920;52.242;20.940;2022-11-14T07:58:40;9.00;99.90
33594;DHT22;19920;52.242;20.940;2022-11-14T08:01:08;9.00;99.90
33594;DHT22;19920;52.242;20.940;2022-11-14T08:03:34;9.00;99.90
33594;DHT22;19920;52.242;20.940;2022-11-14T08:06:11;9.10;99.90
33594;DHT22;19920;52.242;20.940;2022-11-14T08:08:38;9.00;99.90
33594;DHT22;19920;52.242;20.940;2022-11-14T08:11:04;9.10;99.90
33594;DHT22;19920;52.242;20.940;2022-11-14T08:13:31;9.20;99.90
33594;DHT22;19920;52.242;20.940;2022-11-14T08:15:56;9.10;99.90
33594;DHT22;19920;52.242;20.940;2022-11-14T08:18:24;9.10;99.90
33594;DHT22;19920;52.242;20.940;2022-11-14T08:20:50;9.20;99.90
33594;DHT22;19920;52.242;20.940;2022-11-14T08:23:18;9.20;99.90
33594;DHT22;19920;52.242;20.940;2022-11-14T08:25:45;9.20;99.90
33594;DHT22;19920;52.242;20.940;2022-11-14T08:28:10;9.20;99.90
33594;DHT22;19920;52.242;20.940;2022-11-14T08:30:37;9.20;99.90
33594;DHT22;19920;52.242;20.940;2022-11-14T08:33:05;9.20;99.90
33594;DHT22;19920;52.242;20.940;2022-11-14T08:35:32;9.10;99.90
33594;DHT22;19920;52.242;20.940;2022-11-14T08:38:01;9.20;99.90
33594;DHT22;19920;52.242;20.940;2022-11-14T08:40:28;9.20;99.90
33594;DHT22;19920;52.242;20.940;2022-11-14T08:43:04;9.20;99.90
33594;DHT22;19920;52.242;20.940;2022-11-14T08:45:32;9.30;99.90
33594;DHT22;19920;52.242;20.940;2022-11-14T08:47:58;9.40;99.90
33594;DHT22;19920;52.242;20.940;2022-11-14T08:50:24;9.30;99.90
33594;DHT22;19920;52.242;20.940;2022-11-14T08:52:50;9.30;99.90
33594;DHT22;19920;52.242;20.940;2022-11-14T08:55:17;9.30;99.90
33594;DHT22;19920;52.242;20.940;2022-11-14T08:57:43;9.40;99.90
33594;DHT22;19920;52.242;20.940;2022-11-14T09:00:09;9.50;99.90
33594;DHT22;19920;52.242;20.940;2022-11-14T09:02:38;9.50;99.90
33594;DHT22;19920;52.242;20.940;2022-11-14T09:05:04;9.50;99.90
33594;DHT22;19920;52.242;20.940;2022-11-14T09:07:31;9.60;99.90
33594;DHT22;19920;52.242;20.940;2022-11-14T09:09:57;9.60;99.90
33594;DHT22;19920;52.242;20.940;2022-11-14T09:12:23;9.60;99.90
33594;DHT22;19920;52.242;20.940;2022-11-14T09:14:53;9.60;99.90
33594;DHT22;19920;52.242;20.940;2022-11-14T09:17:19;9.60;99.90
33594;DHT22;19920;52.242;20.940;2022-11-14T09:19:45;9.60;99.90
33594;DHT22;19920;52.242;20.940;2022-11-14T09:22:13;9.60;99.90
33594;DHT22;19920;52.242;20.940;2022-11-14T09:24:39;9.50;99.90
33594;DHT22;19920;52.242;20.940;2022-11-14T09:27:08;9.50;99.90
33594;DHT22;19920;52.242;20.940;2022-11-14T09:29:34;9.60;99.90
33594;DHT22;19920;52.242;20.940;2022-11-14T09:32:03;9.50;99.90
33594;DHT22;19920;52.242;20.940;2022-11-14T09:34:29;9.40;99.90
33594;DHT22;19920;52.242;20.940;2022-11-14T09:36:55;9.40;99.90
33594;DHT22;19920;52.242;20.940;2022-11-14T09:39:20;9.50;99.90
33594;DHT22;19920;52.242;20.940;2022-11-14T09:44:48;9.40;99.90
33594;DHT22;19920;52.242;20.940;2022-11-14T09:47:27;9.40;99.90
33594;DHT22;19920;52.242;20.940;2022-11-14T09:50:00;9.50;99.90
33594;DHT22;19920;52.242;20.940;2022-11-14T09:52:38;9.50;99.90
33594;DHT22;19920;52.242;20.940;2022-11-14T09:55:12;9.50;99.90
33594;DHT22;19920;52.242;20.940;2022-11-14T09:57:42;9.50;99.90
33594;DHT22;19920;52.242;20.940;2022-11-14T10:00:23;9.50;99.90
33594;DHT22;19920;52.242;20.940;2022-11-14T10:08:26;9.40;99.90
33594;DHT22;19920;52.242;20.940;2022-11-14T10:28:11;9.30;99.90
33594;DHT22;19920;52.242;20.940;2022-11-14T10:34:33;9.40;99.90
33594;DHT22;19920;52.242;20.940;2022-11-14T10:39:50;9.40;99.90
33594;DHT22;19920;52.242;20.940;2022-11-14T10:42:23;9.40;99.90
33594;DHT22;19920;52.242;20.940;2022-11-14T10:44:53;9.40;99.90
33594;DHT22;19920;52.242;20.940;2022-11-14T10:47:24;9.40;99.90
33594;DHT22;19920;52.242;20.940;2022-11-14T10:49:53;9.40;99.90
33594;DHT22;19920;52.242;20.940;2022-11-14T10:52:25;9.50;99.90
33594;DHT22;19920;52.242;20.940;2022-11-14T10:55:05;9.50;99.90
33594;DHT22;19920;52.242;20.940;2022-11-14T10:57:31;9.50;99.90
33594;DHT22;19920;52.242;20.940;2022-11-14T10:59:57;9.50;99.90
33594;DHT22;19920;52.242;20.940;2022-11-14T11:02:23;9.60;99.90
33594;DHT22;19920;52.242;20.940;2022-11-14T11:04:48;9.70;99.90
33594;DHT22;19920;52.242;20.940;2022-11-14T11:07:24;9.50;99.90
33594;DHT22;19920;52.242;20.940;2022-11-14T11:10:21;9.60;99.90
33594;DHT22;19920;52.242;20.940;2022-11-14T11:13:10;9.60;99.90
33594;DHT22;19920;52.242;20.940;2022-11-14T11:15:41;9.60;99.90
33594;DHT22;19920;52.242;20.940;2022-11-14T11:18:30;9.80;99.90
33594;DHT22;19920;52.242;20.940;2022-11-14T11:21:11;9.60;99.90
33594;DHT22;19920;52.242;20.940;2022-11-14T11:24:07;9.80;99.90
33594;DHT22;19920;52.242;20.940;2022-11-14T11:26:33;9.80;99.90
33594;DHT22;19920;52.242;20.940;2022-11-14T11:31:50;9.80;99.90
33594;DHT22;19920;52.242;20.940;2022-11-14T11:34:27;9.80;99.90
33594;DHT22;19920;52.242;20.940;2022-11-14T11:37:04;9.70;99.90
33594;DHT22;19920;52.242;20.940;2022-11-14T11:39:42;9.70;99.90
33594;DHT22;19920;52.242;20.940;2022-11-14T11:42:16;9.80;99.90
33594;DHT22;19920;52.242;20.940;2022-11-14T11:44:48;9.80;99.90
33594;DHT22;19920;52.242;20.940;2022-11-14T11:47:16;9.60;99.90
33594;DHT22;19920;52.242;20.940;2022-11-14T11:49:48;9.60;99.90
33594;DHT22;19920;52.242;20.940;2022-11-14T11:52:18;9.60;99.90
33594;DHT22;19920;52.242;20.940;2022-11-14T11:57:21;9.70;99.90
33594;DHT22;19920;52.242;20.940;2022-11-14T11:59:48;9.80;99.90
33594;DHT22;19920;52.242;20.940;2022-11-14T12:02:26;9.80;99.90
33594;DHT22;19920;52.242;20.940;2022-11-14T12:04:54;9.90;99.90
33594;DHT22;19920;52.242;20.940;2022-11-14T12:07:37;9.90;99.90
33594;DHT22;19920;52.242;20.940;2022-11-14T12:10:35;9.90;99.90
33594;DHT22;19920;52.242;20.940;2022-11-14T12:18:32;9.80;99.90
33594;DHT22;19920;52.242;20.940;2022-11-14T12:21:12;9.80;99.90
33594;DHT22;19920;52.242;20.940;2022-11-14T12:24:00;9.80;99.90
33594;DHT22;19920;52.242;20.940;2022-11-14T12:30:03;9.80;99.90
33594;DHT22;19920;52.242;20.940;2022-11-14T12:32:39;9.90;99.90
33594;DHT22;19920;52.242;20.940;2022-11-14T12:35:23;9.80;99.90
33594;DHT22;19920;52.242;20.940;2022-11-14T12:37:53;9.80;99.90
33594;DHT22;19920;52.242;20.940;2022-11-14T12:40:26;9.70;99.90
33594;DHT22;19920;52.242;20.940;2022-11-14T12:42:54;9.50;99.90
33594;DHT22;19920;52.242;20.940;2022-11-14T12:50:51;9.40;99.90
33594;DHT22;19920;52.242;20.940;2022-11-14T13:07:41;9.20;99.90
33594;DHT22;19920;52.242;20.940;2022-11-14T13:13:09;9.10;99.90
33594;DHT22;19920;52.242;20.940;2022-11-14T13:15:55;9.10;99.90
33594;DHT22;19920;52.242;20.940;2022-11-14T13:29:50;8.90;99.90
33594;DHT22;19920;52.242;20.940;2022-11-14T13:51:25;8.70;99.90
33594;DHT22;19920;52.242;20.940;2022-11-14T13:53:51;8.70;99.90
33594;DHT22;19920;52.242;20.940;2022-11-14T14:15:05;8.80;99.90
33594;DHT22;19920;52.242;20.940;2022-11-14T14:29:28;8.70;99.90
33594;DHT22;19920;52.242;20.940;2022-11-14T14:32:17;8.70;99.90
33594;DHT22;19920;52.242;20.940;2022-11-14T14:34:43;8.60;99.90
33594;DHT22;19920;52.242;20.940;2022-11-14T14:37:21;8.60;99.90
33594;DHT22;19920;52.242;20.940;2022-11-14T14:39:57;8.50;99.90
33594;DHT22;19920;52.242;20.940;2022-11-14T14:42:24;8.50;99.90
33594;DHT22;19920;52.242;20.940;2022-11-14T14:44:50;8.50;99.90
33594;DHT22;19920;52.242;20.940;2022-11-14T14:50:47;8.60;99.90
33594;DHT22;19920;52.242;20.940;2022-11-14T14:52:43;8.50;99.90
33594;DHT22;19920;52.242;20.940;2022-11-14T14:55:26;8.50;99.90
33594;DHT22;19920;52.242;20.940;2022-11-14T14:57:51;8.50;99.90
33594;DHT22;19920;52.242;20.940;2022-11-14T15:02:43;8.50;99.90
33594;DHT22;19920;52.242;20.940;2022-11-14T15:05:10;8.50;99.90
33594;DHT22;19920;52.242;20.940;2022-11-14T15:07:38;8.50;99.90
33594;DHT22;19920;52.242;20.940;2022-11-14T15:10:05;8.50;99.90
33594;DHT22;19920;52.242;20.940;2022-11-14T15:12:33;8.50;99.90
33594;DHT22;19920;52.242;20.940;2022-11-14T15:15:00;8.50;99.90
33594;DHT22;19920;52.242;20.940;2022-11-14T15:17:26;8.60;99.90
33594;DHT22;19920;52.242;20.940;2022-11-14T15:19:53;8.50;99.90
33594;DHT22;19920;52.242;20.940;2022-11-14T15:27:30;8.40;99.90
33594;DHT22;19920;52.242;20.940;2022-11-14T15:30:01;8.40;99.90
33594;DHT22;19920;52.242;20.940;2022-11-14T15:32:28;8.40;99.90
33594;DHT22;19920;52.242;20.940;2022-11-14T15:35:23;8.40;99.90
33594;DHT22;19920;52.242;20.940;2022-11-14T15:40:29;8.40;99.90
33594;DHT22;19920;52.242;20.940;2022-11-14T15:42:55;8.30;99.90
33594;DHT22;19920;52.242;20.940;2022-11-14T15:45:24;8.30;99.90
33594;DHT22;19920;52.242;20.940;2022-11-14T15:48:01;8.20;99.90
33594;DHT22;19920;52.242;20.940;2022-11-14T15:50:31;8.20;99.90
33594;DHT22;19920;52.242;20.940;2022-11-14T15:53:04;8.20;99.90
33594;DHT22;19920;52.242;20.940;2022-11-14T15:55:30;8.20;99.90
33594;DHT22;19920;52.242;20.940;2022-11-14T15:57:56;8.10;99.90
33594;DHT22;19920;52.242;20.940;2022-11-14T16:00:22;8.10;99.90
33594;DHT22;19920;52.242;20.940;2022-11-14T16:02:57;8.10;99.90
33594;DHT22;19920;52.242;20.940;2022-11-14T16:05:30;8.20;99.90
33594;DHT22;19920;52.242;20.940;2022-11-14T16:07:56;8.20;99.90
33594;DHT22;19920;52.242;20.940;2022-11-14T16:10:24;8.10;99.90
33594;DHT22;19920;52.242;20.940;2022-11-14T16:12:50;8.10;99.90
33594;DHT22;19920;52.242;20.940;2022-11-14T16:15:17;8.10;99.90
33594;DHT22;19920;52.242;20.940;2022-11-14T16:17:44;8.00;99.90
33594;DHT22;19920;52.242;20.940;2022-11-14T16:20:16;8.00;99.90
33594;DHT22;19920;52.242;20.940;2022-11-14T16:22:46;8.00;99.90
33594;DHT22;19920;52.242;20.940;2022-11-14T16:25:17;8.00;99.90
33594;DHT22;19920;52.242;20.940;2022-11-14T16:27:44;7.90;99.90
33594;DHT22;19920;52.242;20.940;2022-11-14T16:30:13;8.00;99.90
33594;DHT22;19920;52.242;20.940;2022-11-14T16:32:40;8.00;99.90
33594;DHT22;19920;52.242;20.940;2022-11-14T16:35:10;7.90;99.90
33594;DHT22;19920;52.242;20.940;2022-11-14T16:37:36;7.90;99.90
33594;DHT22;19920;52.242;20.940;2022-11-14T16:40:02;8.00;99.90
33594;DHT22;19920;52.242;20.940;2022-11-14T16:42:28;8.00;99.90
33594;DHT22;19920;52.242;20.940;2022-11-14T16:44:59;8.00;99.90
33594;DHT22;19920;52.242;20.940;2022-11-14T16:47:26;8.10;99.90
33594;DHT22;19920;52.242;20.940;2022-11-14T16:49:52;8.10;99.90
33594;DHT22;19920;52.242;20.940;2022-11-14T16:52:17;8.10;99.90
33594;DHT22;19920;52.242;20.940;2022-11-14T16:54:44;8.10;99.90
33594;DHT22;19920;52.242;20.940;2022-11-14T16:57:10;8.10;99.90
33594;DHT22;19920;52.242;20.940;2022-11-14T16:59:36;8.10;99.90
33594;DHT22;19920;52.242;20.940;2022-11-14T17:02:02;8.10;99.90
33594;DHT22;19920;52.242;20.940;2022-11-14T17:04:27;8.10;99.90
33594;DHT22;19920;52.242;20.940;2022-11-14T17:06:53;8.10;99.90
33594;DHT22;19920;52.242;20.940;2022-11-14T17:09:19;8.10;99.90
33594;DHT22;19920;52.242;20.940;2022-11-14T17:11:44;8.10;99.90
33594;DHT22;19920;52.242;20.940;2022-11-14T17:14:10;8.10;99.90
33594;DHT22;19920;52.242;20.940;2022-11-14T17:16:36;8.10;99.90
33594;DHT22;19920;52.242;20.940;2022-11-14T17:19:02;8.10;99.90
33594;DHT22;19920;52.242;20.940;2022-11-14T17:21:28;8.10;99.90
33594;DHT22;19920;52.242;20.940;2022-11-14T17:23:58;8.10;99.90
33594;DHT22;19920;52.242;20.940;2022-11-14T17:26:27;8.00;99.90
33594;DHT22;19920;52.242;20.940;2022-11-14T17:28:53;8.00;99.90
33594;DHT22;19920;52.242;20.940;2022-11-14T17:31:19;8.00;99.90
33594;DHT22;19920;52.242;20.940;2022-11-14T17:33:52;8.00;99.90
33594;DHT22;19920;52.242;20.940;2022-11-14T17:36:19;8.10;99.90
33594;DHT22;19920;52.242;20.940;2022-11-14T17:38:44;8.00;99.90
33594;DHT22;19920;52.242;20.940;2022-11-14T17:41:10;8.00;99.90
33594;DHT22;19920;52.242;20.940;2022-11-14T17:43:36;8.00;99.90
33594;DHT22;19920;52.242;20.940;2022-11-14T17:46:03;8.00;99.90
33594;DHT22;19920;52.242;20.940;2022-11-14T17:48:28;8.00;99.90
33594;DHT22;19920;52.242;20.940;2022-11-14T17:50:54;8.00;99.90
33594;DHT22;19920;52.242;20.940;2022-11-14T17:53:21;7.90;99.90
33594;DHT22;19920;52.242;20.940;2022-11-14T17:55:54;8.00;99.90
33594;DHT22;19920;52.242;20.940;2022-11-14T17:58:21;7.90;99.90
33594;DHT22;19920;52.242;20.940;2022-11-14T18:00:47;7.90;99.90